Stolt Jade — ZCSQ4 — position and weather

sailwx.info

Track history (hours):
 
Tides and Currents Weather Stations Pressure Air Temp Water Temp Dewpoint Dewpoint Depression Visibility Wind Speed Wind Dir Waves Ship Positions

Stolt Jade

Last reported at 2015-Jan-25 05:17 UTC. Time now 2015-Jan-27 16:50 UTC.
Position N 29°19' W 094°39'.

Length 175 m; draft 7.6 m.

Type: Ship (hazmat cat B). MMSI: 319439000.

Date/timePositionNaut miles runAvg speedWind from/ knotsBaromVisibWave heightAir tempDewpointWater temp
2015-Jan-25 05:17N 29°19' W 094°39'810.3
2015-Jan-25 04:33N 29°22' W 094°48'1212.1
2015-Jan-25 03:33N 29°32' W 094°54'1111.1
2015-Jan-25 02:33N 29°42' W 095°00'6 6.0
2015-Jan-25 01:33N 29°45' W 095°06'2 0.2
2015-Jan-24 16:17N 29°44' W 095°08'0 0.0
2015-Jan-24 15:20N 29°44' W 095°08'0 0.0
2015-Jan-24 14:29N 29°44' W 095°08'0 0.0
2015-Jan-24 13:23N 29°44' W 095°08'0 0.0
2015-Jan-24 04:09N 29°44' W 095°08'1 1.8
2015-Jan-24 03:33N 29°44' W 095°07'3 0.7
2015-Jan-23 23:32N 29°44' W 095°03'0 0.0
2015-Jan-23 22:11N 29°44' W 095°03'0 0.0
2015-Jan-23 21:20N 29°44' W 095°03'0 0.0
2015-Jan-23 20:20N 29°44' W 095°03'0 0.0
2015-Jan-23 19:26N 29°44' W 095°03'0 0.0
2015-Jan-23 18:17N 29°44' W 095°03'0 0.0
2015-Jan-23 17:20N 29°44' W 095°03'0 0.0
2015-Jan-23 16:32N 29°44' W 095°03'0 0.0
2015-Jan-23 15:32N 29°44' W 095°03'0 0.0
2015-Jan-23 14:29N 29°44' W 095°03'0 0.0
2015-Jan-22 22:32N 29°44' W 095°03'0 0.0
2015-Jan-22 21:32N 29°44' W 095°03'0 0.0
2015-Jan-22 20:32N 29°44' W 095°03'0 0.0
2015-Jan-22 19:29N 29°44' W 095°03'0 0.0
2015-Jan-22 18:20N 29°44' W 095°03'0 0.0
2015-Jan-22 17:32N 29°44' W 095°03'0 0.0
2015-Jan-22 16:26N 29°44' W 095°03'0 0.0
2015-Jan-22 15:32N 29°44' W 095°03'0 0.0
2015-Jan-22 14:32N 29°44' W 095°03'0 0.0
2015-Jan-21 23:32N 29°44' W 095°03'0 0.0
2015-Jan-21 22:50N 29°44' W 095°03'0 0.0
2015-Jan-21 22:44N 29°44' W 095°03'0 0.0
2015-Jan-21 22:14N 29°44' W 095°03'0 0.0
2015-Jan-21 21:08N 29°44' W 095°03'0 0.0
2015-Jan-21 20:32N 29°44' W 095°03'0 0.0
2015-Jan-21 19:29N 29°44' W 095°03'0 0.0
2015-Jan-21 18:32N 29°44' W 095°03'0 0.0
2015-Jan-21 17:32N 29°44' W 095°03'0 0.0
2015-Jan-21 16:20N 29°44' W 095°03'0 0.0
2015-Jan-21 15:26N 29°44' W 095°03'0 0.0
2015-Jan-21 14:32N 29°44' W 095°03'0 0.0
2015-Jan-20 23:32N 29°44' W 095°03'0 0.0
2015-Jan-20 22:26N 29°44' W 095°03'0 0.0
2015-Jan-20 21:32N 29°44' W 095°03'0 0.0
2015-Jan-20 20:29N 29°44' W 095°03'0 0.0
2015-Jan-20 19:32N 29°44' W 095°03'0 0.0
2015-Jan-20 18:32N 29°44' W 095°03'0 0.0
2015-Jan-20 15:20N 29°44' W 095°03'0 0.0
2015-Jan-20 14:14N 29°44' W 095°03'0 0.0
2015-Jan-19 23:08N 29°44' W 095°03'0 0.0
2015-Jan-19 22:08N 29°44' W 095°03'0 0.0
2015-Jan-19 21:32N 29°44' W 095°03'0 0.0
2015-Jan-19 20:23N 29°44' W 095°03'0 0.0
2015-Jan-19 19:26N 29°44' W 095°03'0 0.0
2015-Jan-19 17:20N 29°44' W 095°03'0 0.0
2015-Jan-19 16:26N 29°44' W 095°03'0 0.0
2015-Jan-19 15:05N 29°44' W 095°03'0 0.0
2015-Jan-19 14:32N 29°44' W 095°03'0 0.0
2015-Jan-19 13:32N 29°44' W 095°03'0 0.0
2015-Jan-19 12:20N 29°44' W 095°03'0 0.0
2015-Jan-19 07:26N 29°44' W 095°03'0 0.0
2015-Jan-19 06:26N 29°44' W 095°03'0 0.0
2015-Jan-19 05:32N 29°44' W 095°03'0 0.0
2015-Jan-19 04:20N 29°44' W 095°03'0 0.0
2015-Jan-19 03:32N 29°44' W 095°03'0 0.0
2015-Jan-18 23:26N 29°44' W 095°03'0 0.0
2015-Jan-18 22:29N 29°44' W 095°03'0 0.0
2015-Jan-18 21:26N 29°44' W 095°03'0 0.0
2015-Jan-18 20:32N 29°44' W 095°03'0 0.0
2015-Jan-18 19:32N 29°44' W 095°03'0 0.0
2015-Jan-18 18:26N 29°44' W 095°03'0 0.0
2015-Jan-18 17:29N 29°44' W 095°03'0 0.0
2015-Jan-18 16:23N 29°44' W 095°03'0 0.0
2015-Jan-18 15:32N 29°44' W 095°03'0 0.0
2015-Jan-18 14:32N 29°44' W 095°03'0 0.0
2015-Jan-18 13:26N 29°44' W 095°03'0 0.0
2015-Jan-18 11:20N 29°44' W 095°03'0 0.0
2015-Jan-17 15:32N 29°44' W 095°03'0 0.0
2015-Jan-17 14:32N 29°44' W 095°03'0 0.0
2015-Jan-17 13:32N 29°44' W 095°03'0 0.0
2015-Jan-17 11:23N 29°44' W 095°03'0 0.0
2015-Jan-17 03:05N 29°44' W 095°03'0 0.0
2015-Jan-16 23:32N 29°44' W 095°03'0 0.0
2015-Jan-16 22:29N 29°44' W 095°03'2 1.9
2015-Jan-16 21:33N 29°43' W 095°01'1110.7
2015-Jan-16 20:33N 29°34' W 094°55'1514.7
2015-Jan-16 19:33N 29°21' W 094°47'  
Track history (hours):
 
Tides and Currents Weather Stations Pressure Air Temp Water Temp Dewpoint Dewpoint Depression Visibility Wind Speed Wind Dir Waves Ship Positions

Stolt Jade

Last reported at 2015-Jan-25 05:17 UTC. Time now 2015-Jan-27 16:50 UTC.
Position N 29°19' W 094°39'.

Length 175 m; draft 7.6 m.

Type: Ship (hazmat cat B). MMSI: 319439000.

Date/timePositionNaut miles runAvg speedWind from/ knotsBaromVisibWave heightAir tempDewpointWater temp
2015-Jan-25 05:17N 29°19' W 094°39'810.3
2015-Jan-25 04:33N 29°22' W 094°48'1212.1
2015-Jan-25 03:33N 29°32' W 094°54'1111.1
2015-Jan-25 02:33N 29°42' W 095°00'6 6.0
2015-Jan-25 01:33N 29°45' W 095°06'2 0.2
2015-Jan-24 16:17N 29°44' W 095°08'0 0.0
2015-Jan-24 15:20N 29°44' W 095°08'0 0.0
2015-Jan-24 14:29N 29°44' W 095°08'0 0.0
2015-Jan-24 13:23N 29°44' W 095°08'0 0.0
2015-Jan-24 04:09N 29°44' W 095°08'1 1.8
2015-Jan-24 03:33N 29°44' W 095°07'3 0.7
2015-Jan-23 23:32N 29°44' W 095°03'0 0.0
2015-Jan-23 22:11N 29°44' W 095°03'0 0.0
2015-Jan-23 21:20N 29°44' W 095°03'0 0.0
2015-Jan-23 20:20N 29°44' W 095°03'0 0.0
2015-Jan-23 19:26N 29°44' W 095°03'0 0.0
2015-Jan-23 18:17N 29°44' W 095°03'0 0.0
2015-Jan-23 17:20N 29°44' W 095°03'0 0.0
2015-Jan-23 16:32N 29°44' W 095°03'0 0.0
2015-Jan-23 15:32N 29°44' W 095°03'0 0.0
2015-Jan-23 14:29N 29°44' W 095°03'0 0.0
2015-Jan-22 22:32N 29°44' W 095°03'0 0.0
2015-Jan-22 21:32N 29°44' W 095°03'0 0.0
2015-Jan-22 20:32N 29°44' W 095°03'0 0.0
2015-Jan-22 19:29N 29°44' W 095°03'0 0.0
2015-Jan-22 18:20N 29°44' W 095°03'0 0.0
2015-Jan-22 17:32N 29°44' W 095°03'0 0.0
2015-Jan-22 16:26N 29°44' W 095°03'0 0.0
2015-Jan-22 15:32N 29°44' W 095°03'0 0.0
2015-Jan-22 14:32N 29°44' W 095°03'0 0.0
2015-Jan-21 23:32N 29°44' W 095°03'0 0.0
2015-Jan-21 22:50N 29°44' W 095°03'0 0.0
2015-Jan-21 22:44N 29°44' W 095°03'0 0.0
2015-Jan-21 22:14N 29°44' W 095°03'0 0.0
2015-Jan-21 21:08N 29°44' W 095°03'0 0.0
2015-Jan-21 20:32N 29°44' W 095°03'0 0.0
2015-Jan-21 19:29N 29°44' W 095°03'0 0.0
2015-Jan-21 18:32N 29°44' W 095°03'0 0.0
2015-Jan-21 17:32N 29°44' W 095°03'0 0.0
2015-Jan-21 16:20N 29°44' W 095°03'0 0.0
2015-Jan-21 15:26N 29°44' W 095°03'0 0.0
2015-Jan-21 14:32N 29°44' W 095°03'0 0.0
2015-Jan-20 23:32N 29°44' W 095°03'0 0.0
2015-Jan-20 22:26N 29°44' W 095°03'0 0.0
2015-Jan-20 21:32N 29°44' W 095°03'0 0.0
2015-Jan-20 20:29N 29°44' W 095°03'0 0.0
2015-Jan-20 19:32N 29°44' W 095°03'0 0.0
2015-Jan-20 18:32N 29°44' W 095°03'0 0.0
2015-Jan-20 15:20N 29°44' W 095°03'0 0.0
2015-Jan-20 14:14N 29°44' W 095°03'0 0.0
2015-Jan-19 23:08N 29°44' W 095°03'0 0.0
2015-Jan-19 22:08N 29°44' W 095°03'0 0.0
2015-Jan-19 21:32N 29°44' W 095°03'0 0.0
2015-Jan-19 20:23N 29°44' W 095°03'0 0.0
2015-Jan-19 19:26N 29°44' W 095°03'0 0.0
2015-Jan-19 17:20N 29°44' W 095°03'0 0.0
2015-Jan-19 16:26N 29°44' W 095°03'0 0.0
2015-Jan-19 15:05N 29°44' W 095°03'0 0.0
2015-Jan-19 14:32N 29°44' W 095°03'0 0.0
2015-Jan-19 13:32N 29°44' W 095°03'0 0.0
2015-Jan-19 12:20N 29°44' W 095°03'0 0.0
2015-Jan-19 07:26N 29°44' W 095°03'0 0.0
2015-Jan-19 06:26N 29°44' W 095°03'0 0.0
2015-Jan-19 05:32N 29°44' W 095°03'0 0.0
2015-Jan-19 04:20N 29°44' W 095°03'0 0.0
2015-Jan-19 03:32N 29°44' W 095°03'0 0.0
2015-Jan-18 23:26N 29°44' W 095°03'0 0.0
2015-Jan-18 22:29N 29°44' W 095°03'0 0.0
2015-Jan-18 21:26N 29°44' W 095°03'0 0.0
2015-Jan-18 20:32N 29°44' W 095°03'0 0.0
2015-Jan-18 19:32N 29°44' W 095°03'0 0.0
2015-Jan-18 18:26N 29°44' W 095°03'0 0.0
2015-Jan-18 17:29N 29°44' W 095°03'0 0.0
2015-Jan-18 16:23N 29°44' W 095°03'0 0.0
2015-Jan-18 15:32N 29°44' W 095°03'0 0.0
2015-Jan-18 14:32N 29°44' W 095°03'0 0.0
2015-Jan-18 13:26N 29°44' W 095°03'0 0.0
2015-Jan-18 11:20N 29°44' W 095°03'0 0.0
2015-Jan-17 15:32N 29°44' W 095°03'0 0.0
2015-Jan-17 14:32N 29°44' W 095°03'0 0.0
2015-Jan-17 13:32N 29°44' W 095°03'0 0.0
2015-Jan-17 11:23N 29°44' W 095°03'0 0.0
2015-Jan-17 03:05N 29°44' W 095°03'0 0.0
2015-Jan-16 23:32N 29°44' W 095°03'0 0.0
2015-Jan-16 22:29N 29°44' W 095°03'2 1.9
2015-Jan-16 21:33N 29°43' W 095°01'1110.7
2015-Jan-16 20:33N 29°34' W 094°55'1514.7
2015-Jan-16 19:33N 29°21' W 094°47'  

Dump ship's entire track history